»·PEaware :: SWA4508 KBOI-KSEA

SWA4508 :: KBOI-KSEA

FLIGHT INFORMATION

Flight Status: Arrived
Operator:
Southwest Airlines
More flights by this operator :: More flights under this callsign
Pilot: Ian N. (16575)
Aircraft: BOEING 737-800
(B738)
More flights by this aircraft type
Origin: KBOI Boise Air Terminal/Gowen
United States
Destination: KSEA Seattle-Tacoma Intl
United States
More flights between these airports :: More routes between these airports
Route: +BOI3 LICKS PREIS PDT CHINS CHINS3
File this flight plan on PilotEdge
Remarks:
Altitude:
(Current/Filed)
30,000ft
Speed:
(Current/Filed)
450kts
Departed: 24-Feb-18 11:40 AM
Arrived: 24-Feb-18 12:53 PM
Distance/Time
Traveled:
346nm/1:12
Distance/Time
To Go:
Arrived

Flight Plot

Page will automatically refresh every two minutes.

Flight plan parsing failed; only flown route is shown


Map Options




Map Legend


Flown Route
Filed Route
Departure Airport
Arrival Airport
Navaid (VOR, NDB)
Fix

Horizontal Profiles

Position Reports

Time Latitude Longitude Heading Altitude Ground
Speed
24-Feb-18 11:25 43.566748 -116.215672 203 2858ft 0kts
24-Feb-18 11:26 43.566748 -116.215672 203 2858ft 0kts
24-Feb-18 11:27 43.566748 -116.215672 203 2858ft 0kts
24-Feb-18 11:28 43.566748 -116.215672 203 2858ft 0kts
24-Feb-18 11:30 43.566748 -116.215672 203 2858ft 0kts
24-Feb-18 11:31 43.566748 -116.215672 203 2858ft 0kts
24-Feb-18 11:32 43.566748 -116.215672 203 2858ft 0kts
24-Feb-18 11:33 43.566748 -116.215672 203 2858ft 0kts
24-Feb-18 11:34 43.566748 -116.215672 203 2858ft 0kts
24-Feb-18 11:35 43.566748 -116.215672 203 2858ft 0kts
24-Feb-18 11:36 43.566748 -116.215672 203 2858ft 0kts
24-Feb-18 11:37 43.566748 -116.215672 203 2858ft 0kts
24-Feb-18 11:38 43.566748 -116.215672 203 2858ft 0kts
24-Feb-18 11:39 43.566748 -116.215672 203 2858ft 0kts
24-Feb-18 11:40 43.566748 -116.215672 203 2858ft 0kts
24-Feb-18 11:41 43.566738 -116.215679 203 2858ft 0kts
24-Feb-18 11:42 43.565880 -116.219481 271 2854ft 19kts
24-Feb-18 11:43 43.568655 -116.228691 295 2842ft 32kts
24-Feb-18 11:44 43.570884 -116.235521 260 2831ft 0kts
24-Feb-18 11:45 43.570884 -116.235521 260 2831ft 0kts
24-Feb-18 11:46 43.570882 -116.235534 258 2831ft 0kts
24-Feb-18 11:47 43.565368 -116.222472 116 2886ft 162kts
24-Feb-18 11:48 43.543665 -116.158041 124 4365ft 204kts
24-Feb-18 11:49 43.517630 -116.089812 119 7021ft 228kts
24-Feb-18 11:50 43.495642 -116.009770 120 8989ft 244kts
24-Feb-18 11:51 43.466521 -115.927595 126 10829ft 258kts
24-Feb-18 11:52 43.433411 -115.837699 103 12487ft 284kts
24-Feb-18 11:53 43.462106 -115.745770 20 16199ft 283kts
24-Feb-18 11:54 43.529900 -115.750188 315 19904ft 251kts
24-Feb-18 11:55 43.577955 -115.826904 305 20281ft 290kts
24-Feb-18 11:56 43.630381 -115.918807 302 21703ft 347kts
24-Feb-18 11:57 43.695522 -116.022839 312 23959ft 376kts
24-Feb-18 11:58 43.769130 -116.125945 300 26364ft 385kts
24-Feb-18 11:59 43.833462 -116.245103 307 28836ft 401kts
24-Feb-18 12:00 43.905261 -116.364991 308 30024ft 411kts
24-Feb-18 12:01 43.976774 -116.484107 308 30029ft 409kts
24-Feb-18 12:02 44.049213 -116.605235 308 30033ft 409kts
24-Feb-18 12:03 44.122323 -116.717371 321 30059ft 412kts
24-Feb-18 12:04 44.209269 -116.818772 313 30057ft 411kts
24-Feb-18 12:05 44.289802 -116.928891 313 30056ft 409kts
24-Feb-18 12:06 44.369480 -117.038695 314 30055ft 404kts
24-Feb-18 12:07 44.448116 -117.147481 314 30050ft 400kts
24-Feb-18 12:08 44.526098 -117.255773 314 30007ft 400kts
24-Feb-18 12:09 44.604184 -117.364678 314 29964ft 401kts
24-Feb-18 12:10 44.682469 -117.474300 314 29958ft 401kts
24-Feb-18 12:11 44.760245 -117.583655 314 29957ft 401kts
24-Feb-18 12:12 44.836887 -117.691854 314 29962ft 401kts
24-Feb-18 12:13 44.914306 -117.801569 314 29961ft 401kts
24-Feb-18 12:14 44.991597 -117.911576 314 29969ft 403kts
24-Feb-18 12:15 45.056903 -118.004870 314 29968ft 407kts
24-Feb-18 12:16 45.146687 -118.133633 314 29974ft 411kts
24-Feb-18 12:17 45.224983 -118.246421 314 29973ft 411kts
24-Feb-18 12:18 45.304587 -118.361589 314 29974ft 411kts
24-Feb-18 12:19 45.383734 -118.476587 314 29981ft 411kts
24-Feb-18 12:20 45.462739 -118.591869 314 29988ft 411kts
24-Feb-18 12:21 45.538408 -118.702753 313 29992ft 411kts
24-Feb-18 12:22 45.604060 -118.799315 313 29991ft 411kts
24-Feb-18 12:23 45.695030 -118.933965 313 29986ft 403kts
24-Feb-18 12:24 45.754996 -119.034173 312 29987ft 399kts
24-Feb-18 12:25 45.838028 -119.174426 312 30011ft 399kts
24-Feb-18 12:26 45.896756 -119.274189 312 30020ft 399kts
24-Feb-18 12:27 45.967583 -119.394967 312 30028ft 399kts
24-Feb-18 12:28 46.035851 -119.511892 312 30042ft 398kts
24-Feb-18 12:29 46.105281 -119.631299 312 30057ft 398kts
24-Feb-18 12:30 46.172552 -119.747501 311 30069ft 398kts
24-Feb-18 12:31 46.240211 -119.864884 311 30049ft 398kts
24-Feb-18 12:32 46.310713 -119.987699 311 30018ft 399kts
24-Feb-18 12:33 46.380761 -120.110286 311 29566ft 397kts
24-Feb-18 12:34 46.449684 -120.231435 311 28571ft 391kts
24-Feb-18 12:35 46.517450 -120.351069 311 27568ft 385kts
24-Feb-18 12:36 46.582709 -120.471059 307 26334ft 380kts
24-Feb-18 12:37 46.641937 -120.594515 307 24816ft 372kts
24-Feb-18 12:38 46.698755 -120.713832 306 23336ft 365kts
24-Feb-18 12:39 46.754977 -120.832405 305 21482ft 359kts
24-Feb-18 12:40 46.809971 -120.948901 305 19792ft 349kts
24-Feb-18 12:41 46.863239 -121.062271 305 18085ft 334kts
24-Feb-18 12:42 46.913303 -121.169227 306 16526ft 306kts
24-Feb-18 12:43 46.958267 -121.265564 306 14992ft 280kts
24-Feb-18 12:44 46.999398 -121.353980 306 13554ft 271kts
24-Feb-18 12:45 47.039796 -121.441122 305 12569ft 274kts
24-Feb-18 12:46 47.081110 -121.530586 305 12005ft 272kts
24-Feb-18 12:47 47.093810 -121.636648 275 11999ft 279kts
24-Feb-18 12:48 47.096188 -121.737049 274 11712ft 281kts
24-Feb-18 12:49 47.098853 -121.843851 274 10313ft 275kts
24-Feb-18 12:50 47.101540 -121.941308 274 8999ft 272kts
24-Feb-18 12:51 47.103971 -122.020293 274 8051ft 266kts
24-Feb-18 12:52 47.117334 -122.091526 311 7721ft 268kts
24-Feb-18 12:53 47.147195 -122.137414 315 6856ft 264kts
24-Feb-18 12:54 47.190445 -122.203381 315 5352ft 270kts
24-Feb-18 12:55 47.240179 -122.279596 315 3486ft 280kts
24-Feb-18 12:56 47.300759 -122.335432 337 2425ft 255kts
24-Feb-18 12:57 47.357960 -122.329916 24 1964ft 220kts
24-Feb-18 12:58 47.400126 -122.308285 0 1372ft 167kts
24-Feb-18 12:59 47.433669 -122.310350 12 350ft 63kts
24-Feb-18 13:00 47.449151 -122.307566 92 354ft 0kts
24-Feb-18 13:01 47.450458 -122.305883 92 354ft 0kts
24-Feb-18 13:02 47.450506 -122.305332 86 356ft 2kts

Navigation Log

Ident Type
Flight plan parsing failed, navigation log unavailable